Time;durP1;ratioP1;P1;durP2;ratioP2;P2;SDS_P1;SDS_P2;PMS_P1;PMS_P2;Temp;Humidity;BMP_temperature;BMP_pressure;BME280_temperature;BME280_humidity;BME280_pressure;Samples;Min_cycle;Max_cycle;Signal;HPM_P1;HPM_P2
2023/03/02 00:02:16;;;;;;;32.97;18.77;;;;;;;;;;4997633;28;20051;-76
2023/03/02 00:04:51;;;;;;;29.17;19.33;;;;;;;;;;4937628;28;20118;-75
2023/03/02 00:07:23;;;;;;;30.60;18.77;;;;;;;;;;4948467;28;20047;-76
2023/03/02 00:09:49;;;;;;;36.45;21.23;;;;;;;;;;4947335;29;20051;-76
2023/03/02 00:12:16;;;;;;;34.08;20.00;;;;;;;;;;4961155;28;20531;-77
2023/03/02 00:14:43;;;;;;;34.10;20.02;;;;;;;;;;4936368;28;20057;-76
2023/03/02 00:17:10;;;;;;;32.50;21.25;;;;;;;;;;4956803;28;20062;-74
2023/03/02 00:19:37;;;;;;;33.13;19.35;;;;;;;;;;4973469;28;20051;-75
2023/03/02 00:22:04;;;;;;;32.33;19.58;;;;;;;;;;4972404;28;20054;-76
2023/03/02 00:24:31;;;;;;;34.47;19.77;;;;;;;;;;4973761;28;20511;-76
2023/03/02 00:26:58;;;;;;;32.63;19.98;;;;;;;;;;4973504;28;20066;-76
2023/03/02 00:29:25;;;;;;;29.52;20.08;;;;;;;;;;4974370;28;20058;-76
2023/03/02 00:31:52;;;;;;;35.53;20.08;;;;;;;;;;4989090;28;20061;-76
2023/03/02 00:34:19;;;;;;;36.67;20.60;;;;;;;;;;4988100;28;20138;-77
2023/03/02 00:36:48;;;;;;;35.83;20.67;;;;;;;;;;4940835;28;20074;-77
2023/03/02 00:39:18;;;;;;;35.97;20.63;;;;;;;;;;4956552;28;20073;-77
2023/03/02 00:41:46;;;;;;;32.22;18.92;;;;;;;;;;4941414;28;20511;-76
2023/03/02 00:44:16;;;;;;;35.58;21.67;;;;;;;;;;4955429;28;20534;-77
2023/03/02 00:46:43;;;;;;;33.05;19.98;;;;;;;;;;4956955;28;20055;-77
2023/03/02 00:49:11;;;;;;;35.42;21.15;;;;;;;;;;4955882;28;20408;-77
2023/03/02 00:51:38;;;;;;;35.05;20.75;;;;;;;;;;4940583;28;20058;-77
2023/03/02 00:54:05;;;;;;;32.13;20.13;;;;;;;;;;4950646;29;20063;-77
2023/03/02 00:56:31;;;;;;;36.05;21.35;;;;;;;;;;4984418;28;20059;-77
2023/03/02 00:59:09;;;;;;;35.20;21.02;;;;;;;;;;4984354;28;20566;-77
2023/03/02 01:01:36;;;;;;;35.75;20.48;;;;;;;;;;4957787;28;20059;-77
2023/03/02 01:04:03;;;;;;;33.63;20.58;;;;;;;;;;4936340;29;20055;-76
2023/03/02 01:06:30;;;;;;;31.90;20.55;;;;;;;;;;4968443;28;20416;-77
2023/03/02 01:08:57;;;;;;;34.13;20.73;;;;;;;;;;4968666;28;20113;-77
2023/03/02 01:11:24;;;;;;;36.65;20.50;;;;;;;;;;4953587;29;20067;-77
2023/03/02 01:13:50;;;;;;;36.42;21.58;;;;;;;;;;4974676;28;20059;-77
2023/03/02 01:16:17;;;;;;;36.53;21.83;;;;;;;;;;4982949;28;20050;-77
2023/03/02 01:18:44;;;;;;;35.72;21.60;;;;;;;;;;4977967;28;20137;-77
2023/03/02 01:21:12;;;;;;;34.08;20.80;;;;;;;;;;4942041;28;20054;-78
2023/03/02 01:23:39;;;;;;;34.58;20.67;;;;;;;;;;4958260;28;20058;-77
2023/03/02 01:26:06;;;;;;;35.03;21.45;;;;;;;;;;4973823;28;20050;-78
2023/03/02 01:28:33;;;;;;;37.42;22.10;;;;;;;;;;4973769;28;20062;-77
2023/03/02 01:31:03;;;;;;;38.25;22.75;;;;;;;;;;5005701;28;20054;-77
2023/03/02 01:33:30;;;;;;;37.08;21.30;;;;;;;;;;4989385;28;20055;-78
2023/03/02 01:35:57;;;;;;;39.47;22.08;;;;;;;;;;4942180;28;20051;-78
2023/03/02 01:38:24;;;;;;;38.22;22.33;;;;;;;;;;4974759;28;20059;-77
2023/03/02 01:40:50;;;;;;;38.85;23.17;;;;;;;;;;4972807;28;20051;-77
2023/03/02 01:43:17;;;;;;;40.97;22.52;;;;;;;;;;4962772;28;20055;-77
2023/03/02 01:45:52;;;;;;;36.35;21.80;;;;;;;;;;4952218;28;20424;-77
2023/03/02 01:48:22;;;;;;;36.53;21.45;;;;;;;;;;4968434;28;20066;-77
2023/03/02 01:50:49;;;;;;;36.42;22.05;;;;;;;;;;4990906;28;20065;-77
2023/03/02 01:53:16;;;;;;;36.58;21.73;;;;;;;;;;4971537;28;20062;-78
2023/03/02 01:55:44;;;;;;;36.20;21.45;;;;;;;;;;4956676;28;20504;-79
2023/03/02 01:58:12;;;;;;;39.38;22.08;;;;;;;;;;4951672;28;20062;-77
2023/03/02 02:00:39;;;;;;;37.55;22.08;;;;;;;;;;4982857;28;20062;-76
2023/03/02 02:03:19;;;;;;;38.72;23.58;;;;;;;;;;4967905;28;20138;-76
2023/03/02 02:06:16;;;;;;;38.92;22.42;;;;;;;;;;4980834;28;20101;-75
2023/03/02 02:08:45;;;;;;;41.58;21.73;;;;;;;;;;4954590;28;20066;-75
2023/03/02 02:11:12;;;;;;;38.40;21.70;;;;;;;;;;4954181;28;20058;-75
2023/03/02 02:13:39;;;;;;;39.35;21.95;;;;;;;;;;4967792;28;20054;-75
2023/03/02 02:16:06;;;;;;;37.20;21.88;;;;;;;;;;4960002;28;20062;-75
2023/03/02 02:18:35;;;;;;;37.45;22.90;;;;;;;;;;4954035;28;20138;-75
2023/03/02 02:21:02;;;;;;;35.05;22.52;;;;;;;;;;4953973;28;20055;-76
2023/03/02 02:23:42;;;;;;;40.55;23.27;;;;;;;;;;4937905;28;20051;-75
2023/03/02 02:26:29;;;;;;;39.05;23.58;;;;;;;;;;4938455;28;20055;-76
2023/03/02 02:29:11;;;;;;;35.95;21.30;;;;;;;;;;4940358;28;20149;-76
2023/03/02 02:31:50;;;;;;;39.38;22.92;;;;;;;;;;4957146;28;20521;-75
2023/03/02 02:34:21;;;;;;;40.22;23.17;;;;;;;;;;4954392;28;20059;-75
2023/03/02 02:36:50;;;;;;;38.38;23.50;;;;;;;;;;4953823;28;20073;-75
2023/03/02 02:39:27;;;;;;;42.40;24.95;;;;;;;;;;4936734;29;20055;-75
2023/03/02 02:41:55;;;;;;;40.78;22.88;;;;;;;;;;4938001;28;20090;-75
2023/03/02 02:44:22;;;;;;;40.22;23.00;;;;;;;;;;4939040;28;20050;-75
2023/03/02 02:46:49;;;;;;;40.33;22.83;;;;;;;;;;4953611;28;20063;-76
2023/03/02 02:49:29;;;;;;;44.03;24.80;;;;;;;;;;4953985;28;20075;-76
2023/03/02 02:51:56;;;;;;;39.88;23.10;;;;;;;;;;4953984;28;20059;-76
2023/03/02 02:54:23;;;;;;;41.10;24.55;;;;;;;;;;4953871;28;20409;-76
2023/03/02 02:56:50;;;;;;;40.13;23.90;;;;;;;;;;4969338;28;20054;-76
2023/03/02 02:59:20;;;;;;;37.50;22.17;;;;;;;;;;4969598;28;20310;-75
2023/03/02 03:01:47;;;;;;;41.40;23.00;;;;;;;;;;4938281;28;20443;-75
2023/03/02 03:04:17;;;;;;;38.13;21.60;;;;;;;;;;5002195;28;20427;-75
2023/03/02 03:06:59;;;;;;;39.97;22.50;;;;;;;;;;4953453;28;20384;-75
2023/03/02 03:09:27;;;;;;;39.42;22.48;;;;;;;;;;4973334;28;20062;-75
2023/03/02 03:12:07;;;;;;;43.63;24.20;;;;;;;;;;4973415;28;20062;-75
2023/03/02 03:14:35;;;;;;;37.85;23.42;;;;;;;;;;4957633;28;20432;-75
2023/03/02 03:17:02;;;;;;;33.95;22.73;;;;;;;;;;4957253;28;20062;-75
2023/03/02 03:19:30;;;;;;;38.08;21.98;;;;;;;;;;4957318;28;20145;-75
2023/03/02 03:21:58;;;;;;;41.47;23.08;;;;;;;;;;4973767;28;20058;-75
2023/03/02 03:24:27;;;;;;;39.72;22.67;;;;;;;;;;4973913;28;20057;-75
2023/03/02 03:26:54;;;;;;;42.00;22.67;;;;;;;;;;4958136;28;20110;-75
2023/03/02 03:29:23;;;;;;;40.40;22.05;;;;;;;;;;4942281;28;20423;-75
2023/03/02 03:31:53;;;;;;;41.10;23.75;;;;;;;;;;4973785;28;20050;-75
2023/03/02 03:34:20;;;;;;;40.90;23.60;;;;;;;;;;4957939;28;20141;-75
2023/03/02 03:36:47;;;;;;;42.72;23.75;;;;;;;;;;4974003;28;20330;-75
2023/03/02 03:39:15;;;;;;;43.25;24.95;;;;;;;;;;4973829;28;20051;-75
2023/03/02 03:41:41;;;;;;;45.20;25.00;;;;;;;;;;4973987;28;20055;-75
2023/03/02 03:44:08;;;;;;;39.53;22.70;;;;;;;;;;4942138;28;20059;-76
2023/03/02 03:46:35;;;;;;;44.13;25.40;;;;;;;;;;4968491;28;20035;-75
2023/03/02 03:49:02;;;;;;;44.22;24.23;;;;;;;;;;4945290;28;20043;-76
2023/03/02 03:51:33;;;;;;;42.10;23.52;;;;;;;;;;4958020;28;20522;-76
2023/03/02 03:54:02;;;;;;;43.80;25.27;;;;;;;;;;4958410;28;20063;-76
2023/03/02 03:56:34;;;;;;;40.25;23.42;;;;;;;;;;4954044;28;20139;-76
2023/03/02 03:59:05;;;;;;;43.35;23.92;;;;;;;;;;4973459;28;20050;-75
2023/03/02 04:01:39;;;;;;;41.90;23.77;;;;;;;;;;4958069;28;20097;-76
2023/03/02 04:04:06;;;;;;;;;;;;;;;;;;4942907;28;20059;-76
2023/03/02 04:06:33;;;;;;;39.85;23.70;;;;;;;;;;4973313;28;20440;-76
2023/03/02 04:09:03;;;;;;;45.40;24.92;;;;;;;;;;4973618;28;20090;-76
2023/03/02 04:11:32;;;;;;;50.17;27.25;;;;;;;;;;4973185;28;20059;-76
2023/03/02 04:13:59;;;;;;;43.22;25.75;;;;;;;;;;4956329;28;20059;-76
2023/03/02 04:16:26;;;;;;;44.88;25.60;;;;;;;;;;4973396;28;20410;-75
2023/03/02 04:18:53;;;;;;;46.15;25.95;;;;;;;;;;4955482;28;20094;-75
2023/03/02 04:21:20;;;;;;;41.55;22.90;;;;;;;;;;4956034;28;20050;-75
2023/03/02 04:23:48;;;;;;;50.47;23.50;;;;;;;;;;4955543;28;20411;-77
2023/03/02 04:26:14;;;;;;;47.75;23.73;;;;;;;;;;4952304;28;20396;-76
2023/03/02 04:28:41;;;;;;;42.03;24.83;;;;;;;;;;4971864;28;20051;-76
2023/03/02 04:31:08;;;;;;;44.28;25.67;;;;;;;;;;4955915;28;20054;-77
2023/03/02 04:33:35;;;;;;;39.92;25.00;;;;;;;;;;4944892;28;20050;-79
2023/03/02 04:36:01;;;;;;;41.83;26.20;;;;;;;;;;4955889;28;20061;-75
2023/03/02 04:38:28;;;;;;;42.08;23.88;;;;;;;;;;4970213;28;20062;-77
2023/03/02 04:40:56;;;;;;;45.90;25.35;;;;;;;;;;4974457;28;20059;-76
2023/03/02 04:43:24;;;;;;;46.42;26.05;;;;;;;;;;4954575;28;20059;-77
2023/03/02 04:45:52;;;;;;;47.05;25.70;;;;;;;;;;4941019;28;20249;-77
2023/03/02 04:48:22;;;;;;;39.97;25.02;;;;;;;;;;4975523;28;20086;-77
2023/03/02 04:50:48;;;;;;;42.35;24.70;;;;;;;;;;4983403;28;20591;-76
2023/03/02 04:53:16;;;;;;;47.08;26.70;;;;;;;;;;4964011;28;20058;-76
2023/03/02 04:55:43;;;;;;;39.80;24.02;;;;;;;;;;4956548;28;20062;-76
2023/03/02 04:58:09;;;;;;;45.60;25.90;;;;;;;;;;4972064;28;20351;-76
2023/03/02 05:00:36;;;;;;;42.15;25.20;;;;;;;;;;4936948;29;20059;-77
2023/03/02 05:03:04;;;;;;;44.35;25.55;;;;;;;;;;4953665;29;20062;-76
2023/03/02 05:05:32;;;;;;;43.40;25.70;;;;;;;;;;4972800;28;20455;-76
2023/03/02 05:07:59;;;;;;;48.08;27.20;;;;;;;;;;4952242;29;20508;-76
2023/03/02 05:10:27;;;;;;;45.97;26.30;;;;;;;;;;4952738;28;20079;-77
2023/03/02 05:12:56;;;;;;;42.63;24.60;;;;;;;;;;4972610;28;20673;-78
2023/03/02 05:15:25;;;;;;;47.63;26.80;;;;;;;;;;4972134;28;20047;-77
2023/03/02 05:17:52;;;;;;;47.38;25.45;;;;;;;;;;5003985;28;20062;-76
2023/03/02 05:20:19;;;;;;;45.35;26.75;;;;;;;;;;4986824;28;20456;-77
2023/03/02 05:22:46;;;;;;;45.88;26.17;;;;;;;;;;4961291;28;20054;-75
2023/03/02 05:25:13;;;;;;;45.63;24.80;;;;;;;;;;4988744;28;20054;-76
2023/03/02 05:27:40;;;;;;;43.22;25.42;;;;;;;;;;4972171;28;20591;-76
2023/03/02 05:30:08;;;;;;;46.90;26.42;;;;;;;;;;5002493;28;20459;-77
2023/03/02 05:32:35;;;;;;;49.17;26.67;;;;;;;;;;4977623;28;20055;-77
2023/03/02 05:35:01;;;;;;;45.30;25.17;;;;;;;;;;4987556;28;20130;-76
2023/03/02 05:37:28;;;;;;;45.67;26.02;;;;;;;;;;4971333;28;20063;-76
2023/03/02 05:39:55;;;;;;;51.10;26.10;;;;;;;;;;4971339;28;20058;-76
2023/03/02 05:42:22;;;;;;;42.55;25.25;;;;;;;;;;4939605;28;20042;-76
2023/03/02 05:44:48;;;;;;;46.00;27.02;;;;;;;;;;4971319;28;20067;-77
2023/03/02 05:47:15;;;;;;;49.80;27.92;;;;;;;;;;4987106;28;20138;-77
2023/03/02 05:49:42;;;;;;;46.47;27.80;;;;;;;;;;4964614;28;20081;-77
2023/03/02 05:52:09;;;;;;;46.10;27.27;;;;;;;;;;4988198;28;20141;-77
2023/03/02 05:54:35;;;;;;;50.15;28.85;;;;;;;;;;4943693;28;20518;-76
2023/03/02 05:57:02;;;;;;;44.47;25.38;;;;;;;;;;4987641;28;20507;-79
2023/03/02 05:59:29;;;;;;;45.17;25.35;;;;;;;;;;4990123;28;20058;-78
2023/03/02 06:01:57;;;;;;;45.63;24.58;;;;;;;;;;5005766;28;20495;-77
2023/03/02 06:04:25;;;;;;;41.35;24.48;;;;;;;;;;4941575;28;20046;-77
2023/03/02 06:06:51;;;;;;;47.10;25.13;;;;;;;;;;4959664;28;20066;-76
2023/03/02 06:09:18;;;;;;;44.22;25.08;;;;;;;;;;4955489;28;20098;-77
2023/03/02 06:11:45;;;;;;;40.33;23.85;;;;;;;;;;4970766;28;20415;-76
2023/03/02 06:14:12;;;;;;;42.80;25.52;;;;;;;;;;4972300;28;20057;-75
2023/03/02 06:16:39;;;;;;;41.17;24.92;;;;;;;;;;4970928;28;20066;-76
2023/03/02 06:19:05;;;;;;;46.00;25.35;;;;;;;;;;4956460;28;20055;-80
2023/03/02 06:21:32;;;;;;;42.55;24.40;;;;;;;;;;4978988;28;20054;-80
2023/03/02 06:23:59;;;;;;;42.20;25.08;;;;;;;;;;4955906;28;20055;-74
2023/03/02 06:26:26;;;;;;;44.85;25.30;;;;;;;;;;5002576;28;20069;-76
2023/03/02 06:28:52;;;;;;;41.33;24.67;;;;;;;;;;4954078;28;20058;-76
2023/03/02 06:31:20;;;;;;;42.40;25.35;;;;;;;;;;4969187;28;20050;-75
2023/03/02 06:33:47;;;;;;;41.35;24.15;;;;;;;;;;4970364;28;20063;-74
2023/03/02 06:36:15;;;;;;;43.00;23.73;;;;;;;;;;4969386;28;20059;-75
2023/03/02 06:38:42;;;;;;;43.97;24.15;;;;;;;;;;4968573;28;20503;-76
2023/03/02 06:41:09;;;;;;;45.88;24.13;;;;;;;;;;4969257;28;20072;-75
2023/03/02 06:43:36;;;;;;;37.85;22.70;;;;;;;;;;4968635;28;20063;-73
2023/03/02 06:46:02;;;;;;;49.30;26.08;;;;;;;;;;4968817;28;20073;-76
2023/03/02 06:48:29;;;;;;;51.25;25.05;;;;;;;;;;4952721;28;20059;-75
2023/03/02 06:50:56;;;;;;;53.65;27.98;;;;;;;;;;4953482;28;20050;-75
2023/03/02 06:53:23;;;;;;;59.10;28.70;;;;;;;;;;4969464;28;20077;-75
2023/03/02 06:55:50;;;;;;;68.75;32.75;;;;;;;;;;4986344;28;20054;-75
2023/03/02 06:58:17;;;;;;;82.47;35.08;;;;;;;;;;4970983;28;20055;-75
2023/03/02 07:00:44;;;;;;;67.10;30.27;;;;;;;;;;4970012;28;20069;-75
2023/03/02 07:03:11;;;;;;;61.75;31.08;;;;;;;;;;4954528;28;20058;-75
2023/03/02 07:05:38;;;;;;;57.47;29.05;;;;;;;;;;4964244;28;20482;-74
2023/03/02 07:08:06;;;;;;;55.78;26.75;;;;;;;;;;4971648;28;20086;-76
2023/03/02 07:10:32;;;;;;;44.90;23.55;;;;;;;;;;4937001;28;20411;-74
2023/03/02 07:12:59;;;;;;;42.65;23.88;;;;;;;;;;4968086;28;20059;-75
2023/03/02 07:15:26;;;;;;;45.20;25.10;;;;;;;;;;4955954;28;20405;-75
2023/03/02 07:17:53;;;;;;;43.70;23.67;;;;;;;;;;4960720;28;20077;-74
2023/03/02 07:20:20;;;;;;;38.30;22.55;;;;;;;;;;4941669;28;20047;-75
2023/03/02 07:22:47;;;;;;;41.72;22.95;;;;;;;;;;4966856;28;20055;-75
2023/03/02 07:25:14;;;;;;;39.60;23.02;;;;;;;;;;4986945;28;20504;-75
2023/03/02 07:27:41;;;;;;;41.30;24.35;;;;;;;;;;4989592;28;20054;-75
2023/03/02 07:30:08;;;;;;;48.53;25.88;;;;;;;;;;4963490;28;20610;-76
2023/03/02 07:32:35;;;;;;;50.15;26.60;;;;;;;;;;4957307;28;20560;-75
2023/03/02 07:35:02;;;;;;;54.17;27.13;;;;;;;;;;4951700;28;20089;-75
2023/03/02 07:37:29;;;;;;;44.28;23.13;;;;;;;;;;4961977;28;20051;-75
2023/03/02 07:39:55;;;;;;;42.45;22.35;;;;;;;;;;4947057;28;20061;-74
2023/03/02 07:42:25;;;;;;;41.80;21.23;;;;;;;;;;4944095;28;20087;-74
2023/03/02 07:44:53;;;;;;;39.85;21.65;;;;;;;;;;4959937;28;20522;-75
2023/03/02 07:47:20;;;;;;;37.70;20.15;;;;;;;;;;4961870;28;20689;-74
2023/03/02 07:49:46;;;;;;;37.42;21.80;;;;;;;;;;4957570;28;20058;-74
2023/03/02 07:52:14;;;;;;;39.72;22.58;;;;;;;;;;4962963;28;20442;-74
2023/03/02 07:54:40;;;;;;;36.78;20.45;;;;;;;;;;4979642;28;20047;-76
2023/03/02 07:57:07;;;;;;;36.15;21.30;;;;;;;;;;4981577;28;20047;-74
2023/03/02 07:59:34;;;;;;;39.83;21.45;;;;;;;;;;4946541;28;20430;-81
2023/03/02 08:02:00;;;;;;;34.75;21.80;;;;;;;;;;4946562;28;20063;-74
2023/03/02 08:04:27;;;;;;;36.58;20.02;;;;;;;;;;5004650;28;20054;-74
2023/03/02 08:06:54;;;;;;;42.08;22.60;;;;;;;;;;4975614;28;20054;-74
2023/03/02 08:09:21;;;;;;;39.60;22.30;;;;;;;;;;4956570;28;20422;-75
2023/03/02 08:11:49;;;;;;;41.83;21.58;;;;;;;;;;4972488;28;20145;-73
2023/03/02 08:14:18;;;;;;;32.80;20.67;;;;;;;;;;4972789;28;20404;-75
2023/03/02 08:16:45;;;;;;;33.92;19.23;;;;;;;;;;4972538;28;20058;-75
2023/03/02 08:19:12;;;;;;;33.67;19.80;;;;;;;;;;4972065;28;20089;-74
2023/03/02 08:21:39;;;;;;;31.30;19.90;;;;;;;;;;4971560;28;20181;-75
2023/03/02 08:24:06;;;;;;;34.95;19.77;;;;;;;;;;4971779;28;20530;-74
2023/03/02 08:26:33;;;;;;;28.65;17.95;;;;;;;;;;4971031;28;20058;-74
2023/03/02 08:29:00;;;;;;;34.50;20.73;;;;;;;;;;4965993;28;20066;-74
2023/03/02 08:31:28;;;;;;;32.42;18.83;;;;;;;;;;4952972;28;20046;-75
2023/03/02 08:33:55;;;;;;;32.53;18.30;;;;;;;;;;4961269;28;20063;-75
2023/03/02 08:36:22;;;;;;;30.95;18.98;;;;;;;;;;4970910;28;20133;-74
2023/03/02 08:38:48;;;;;;;28.98;17.15;;;;;;;;;;4958569;28;20455;-74
2023/03/02 08:41:18;;;;;;;28.13;18.30;;;;;;;;;;4962309;28;20404;-73
2023/03/02 08:43:46;;;;;;;32.70;19.42;;;;;;;;;;4944093;28;20786;-74
2023/03/02 08:46:15;;;;;;;26.73;16.67;;;;;;;;;;4943414;28;20047;-74
2023/03/02 08:48:43;;;;;;;30.52;17.88;;;;;;;;;;4961617;28;20141;-74
2023/03/02 08:51:22;;;;;;;29.45;17.58;;;;;;;;;;4957729;28;20061;-74
2023/03/02 08:53:51;;;;;;;29.85;16.92;;;;;;;;;;4961980;28;20051;-74
2023/03/02 08:56:24;;;;;;;27.42;16.45;;;;;;;;;;4946195;28;20472;-74
2023/03/02 08:58:51;;;;;;;;;;;;;;;;;;4959276;28;20519;-74
2023/03/02 09:01:20;;;;;;;28.00;17.52;;;;;;;;;;4958280;28;19977;-74
2023/03/02 09:03:48;;;;;;;26.63;15.00;;;;;;;;;;4962741;28;20055;-74
2023/03/02 09:06:15;;;;;;;27.70;16.60;;;;;;;;;;4967006;28;20059;-74
2023/03/02 09:08:42;;;;;;;30.58;17.60;;;;;;;;;;4960545;28;20058;-74
2023/03/02 09:11:09;;;;;;;28.40;15.88;;;;;;;;;;4953918;28;20105;-73
2023/03/02 09:13:37;;;;;;;26.77;16.25;;;;;;;;;;4959980;28;20047;-73
2023/03/02 09:16:04;;;;;;;26.45;16.58;;;;;;;;;;4996761;28;20082;-76
2023/03/02 09:18:34;;;;;;;28.15;16.52;;;;;;;;;;4950943;28;20069;-74
2023/03/02 09:21:04;;;;;;;25.80;16.27;;;;;;;;;;4950134;28;20057;-74
2023/03/02 09:23:35;;;;;;;29.17;16.27;;;;;;;;;;4937591;29;20073;-74
2023/03/02 09:26:03;;;;;;;27.10;15.73;;;;;;;;;;4985735;28;20046;-74
2023/03/02 09:28:30;;;;;;;25.83;16.42;;;;;;;;;;4968674;28;20504;-75
2023/03/02 09:30:59;;;;;;;28.73;15.90;;;;;;;;;;4961645;28;20086;-74
2023/03/02 09:33:27;;;;;;;27.70;16.13;;;;;;;;;;4963480;28;20054;-74
2023/03/02 09:35:54;;;;;;;25.40;15.30;;;;;;;;;;4962687;28;20065;-74
2023/03/02 09:38:21;;;;;;;26.13;15.10;;;;;;;;;;4971704;28;20065;-74
2023/03/02 09:41:03;;;;;;;23.05;14.68;;;;;;;;;;4968043;28;20129;-74
2023/03/02 09:43:52;;;;;;;26.20;15.20;;;;;;;;;;4970721;28;20122;-74
2023/03/02 09:46:26;;;;;;;27.17;15.80;;;;;;;;;;4965401;28;20065;-73
2023/03/02 09:49:14;;;;;;;24.65;15.63;;;;;;;;;;4941118;28;20050;-74
2023/03/02 09:51:41;;;;;;;26.88;14.82;;;;;;;;;;4962262;28;20055;-74
2023/03/02 09:54:20;;;;;;;24.08;15.27;;;;;;;;;;4968129;28;20467;-74
2023/03/02 09:56:56;;;;;;;26.75;15.70;;;;;;;;;;4948610;28;20053;-75
2023/03/02 09:59:28;;;;;;;27.98;15.23;;;;;;;;;;4967320;28;20412;-75
2023/03/02 10:02:21;;;;;;;23.77;15.35;;;;;;;;;;4962209;28;20172;-75
2023/03/02 10:04:53;;;;;;;25.15;14.15;;;;;;;;;;4946694;28;20058;-75
2023/03/02 10:07:28;;;;;;;24.45;15.07;;;;;;;;;;4960462;28;20054;-75
2023/03/02 10:10:03;;;;;;;25.90;14.40;;;;;;;;;;4963464;28;20055;-75
2023/03/02 10:12:42;;;;;;;21.48;14.00;;;;;;;;;;4975010;28;20055;-75
2023/03/02 10:15:27;;;;;;;29.63;14.88;;;;;;;;;;4975693;28;20059;-76
2023/03/02 10:18:17;;;;;;;23.13;14.40;;;;;;;;;;4964335;28;20058;-75
2023/03/02 10:21:11;;;;;;;25.55;14.40;;;;;;;;;;4951314;28;20130;-76
2023/03/02 10:23:41;;;;;;;22.92;15.02;;;;;;;;;;4962689;28;20054;-75
2023/03/02 10:26:17;;;;;;;25.33;14.35;;;;;;;;;;4966302;28;20134;-75
2023/03/02 10:28:50;;;;;;;22.63;14.15;;;;;;;;;;4965550;28;20082;-75
2023/03/02 10:31:22;;;;;;;26.73;15.55;;;;;;;;;;4951017;28;20047;-74
2023/03/02 10:33:49;;;;;;;25.83;14.93;;;;;;;;;;4951188;28;20063;-74
2023/03/02 10:36:33;;;;;;;24.50;14.23;;;;;;;;;;4963916;28;20047;-75
2023/03/02 10:39:00;;;;;;;25.05;14.50;;;;;;;;;;4978078;28;20066;-74
2023/03/02 10:41:37;;;;;;;26.23;14.30;;;;;;;;;;4933809;28;20058;-75
2023/03/02 10:44:14;;;;;;;24.98;15.18;;;;;;;;;;4951273;28;20054;-75
2023/03/02 10:46:46;;;;;;;24.15;14.25;;;;;;;;;;4947735;28;20078;-74
2023/03/02 10:49:26;;;;;;;23.67;13.67;;;;;;;;;;4964547;28;20051;-75
2023/03/02 10:52:14;;;;;;;22.48;13.02;;;;;;;;;;4966074;28;20047;-74
2023/03/02 10:54:41;;;;;;;26.45;14.75;;;;;;;;;;4946872;28;20401;-76
2023/03/02 10:57:36;;;;;;;24.92;14.57;;;;;;;;;;4926309;28;20046;-76
2023/03/02 11:00:10;;;;;;;23.77;14.35;;;;;;;;;;4965371;28;20055;-75
2023/03/02 11:02:37;;;;;;;23.05;13.88;;;;;;;;;;4960823;28;20051;-75
2023/03/02 11:05:20;;;;;;;25.27;13.95;;;;;;;;;;4959692;28;20546;-75
2023/03/02 11:07:57;;;;;;;26.48;14.75;;;;;;;;;;4945647;28;20039;-73
2023/03/02 11:10:40;;;;;;;27.80;15.65;;;;;;;;;;4959295;28;20094;-75
2023/03/02 11:13:27;;;;;;;31.23;14.88;;;;;;;;;;4953341;28;20055;-75
2023/03/02 11:15:59;;;;;;;25.08;15.00;;;;;;;;;;4945780;28;20081;-74
2023/03/02 11:18:41;;;;;;;23.20;14.57;;;;;;;;;;4932578;28;20070;-74
2023/03/02 11:21:39;;;;;;;22.35;13.80;;;;;;;;;;4958946;28;20106;-75
2023/03/02 11:24:12;;;;;;;22.00;13.88;;;;;;;;;;4944246;28;20145;-74
2023/03/02 11:26:58;;;;;;;20.75;14.63;;;;;;;;;;4955473;28;20150;-74
2023/03/02 11:29:41;;;;;;;25.13;15.30;;;;;;;;;;4964252;28;20065;-74
2023/03/02 11:32:07;;;;;;;26.13;14.70;;;;;;;;;;4979621;28;20141;-75
2023/03/02 11:34:50;;;;;;;25.23;15.73;;;;;;;;;;4975696;28;20106;-76
2023/03/02 11:37:20;;;;;;;22.33;14.10;;;;;;;;;;4962841;28;20511;-77
2023/03/02 12:31:16;;;;;;;23.85;14.10;;;;;;;;;;6140950;22;1365300;-75
2023/03/02 12:33:47;;;;;;;17.70;13.23;;;;;;;;;;6239609;23;20453;-74
2023/03/02 12:36:32;;;;;;;23.40;13.18;;;;;;;;;;6215359;23;20024;-75
2023/03/02 12:39:13;;;;;;;21.55;14.07;;;;;;;;;;6191407;23;20030;-75
2023/03/02 12:41:48;;;;;;;22.38;13.45;;;;;;;;;;6190609;23;20029;-74
2023/03/02 12:44:42;;;;;;;16.45;12.35;;;;;;;;;;6217132;23;20667;-74
2023/03/02 12:47:15;;;;;;;24.10;13.32;;;;;;;;;;6216882;23;20083;-74
2023/03/02 12:49:54;;;;;;;19.02;12.90;;;;;;;;;;6192541;23;20050;-74
2023/03/02 12:52:35;;;;;;;19.85;13.98;;;;;;;;;;6193385;23;20039;-76
2023/03/02 12:55:08;;;;;;;18.33;13.60;;;;;;;;;;6169232;23;20036;-76
2023/03/02 12:57:47;;;;;;;17.35;11.93;;;;;;;;;;6217166;23;20032;-75
2023/03/02 13:00:18;;;;;;;17.35;12.90;;;;;;;;;;6191230;23;20458;-75
2023/03/02 13:02:47;;;;;;;16.90;12.23;;;;;;;;;;6192173;23;20060;-75
2023/03/02 13:05:21;;;;;;;19.30;13.35;;;;;;;;;;6216472;23;20031;-75
2023/03/02 13:07:59;;;;;;;17.90;12.32;;;;;;;;;;6216882;23;20075;-76
2023/03/02 13:10:34;;;;;;;19.35;12.30;;;;;;;;;;6190885;23;20020;-76
2023/03/02 13:13:03;;;;;;;20.83;13.27;;;;;;;;;;6192691;23;20028;-76
2023/03/02 13:15:32;;;;;;;19.13;13.02;;;;;;;;;;6166449;23;20032;-76
2023/03/02 13:17:59;;;;;;;18.58;12.60;;;;;;;;;;6214623;23;20032;-76
2023/03/02 13:20:27;;;;;;;18.95;11.93;;;;;;;;;;6169391;23;20343;-77
2023/03/02 13:22:54;;;;;;;17.00;12.73;;;;;;;;;;6170586;23;20021;-77
2023/03/02 13:25:27;;;;;;;18.88;12.43;;;;;;;;;;6192739;23;20055;-77
2023/03/02 13:27:56;;;;;;;18.23;11.55;;;;;;;;;;6193797;23;20099;-77
2023/03/02 13:30:24;;;;;;;17.25;12.15;;;;;;;;;;6167756;23;20023;-77
2023/03/02 13:32:53;;;;;;;18.50;11.63;;;;;;;;;;6188136;23;20036;-77
2023/03/02 13:35:22;;;;;;;17.90;12.13;;;;;;;;;;6162663;23;20025;-77
2023/03/02 13:37:59;;;;;;;15.50;11.32;;;;;;;;;;6164619;23;20028;-77
2023/03/02 13:40:26;;;;;;;16.90;12.82;;;;;;;;;;6190449;23;20134;-78
2023/03/02 13:42:53;;;;;;;18.60;13.38;;;;;;;;;;6215191;23;20106;-77
2023/03/02 13:45:25;;;;;;;18.60;12.73;;;;;;;;;;6163507;23;20029;-78
2023/03/02 13:47:53;;;;;;;20.20;14.10;;;;;;;;;;6188958;23;20040;-77
2023/03/02 13:50:24;;;;;;;22.55;14.15;;;;;;;;;;6161418;23;20021;-78
2023/03/02 13:52:52;;;;;;;18.90;13.07;;;;;;;;;;6208807;23;20028;-78
2023/03/02 13:55:19;;;;;;;20.63;12.20;;;;;;;;;;6185499;23;20024;-78
2023/03/02 13:57:47;;;;;;;19.83;12.73;;;;;;;;;;6207903;23;20021;-76
2023/03/02 14:00:34;;;;;;;17.88;12.48;;;;;;;;;;6207711;23;20047;-76
2023/03/02 14:03:01;;;;;;;20.08;13.20;;;;;;;;;;6183358;23;20112;-76
2023/03/02 14:05:33;;;;;;;24.83;14.70;;;;;;;;;;6158810;23;20021;-76
2023/03/02 14:08:01;;;;;;;26.05;14.52;;;;;;;;;;6184516;23;20043;-76
2023/03/02 14:10:28;;;;;;;20.88;13.15;;;;;;;;;;6208152;23;20063;-76
2023/03/02 14:13:01;;;;;;;19.27;13.07;;;;;;;;;;6183315;23;20035;-76
2023/03/02 14:15:27;;;;;;;17.30;12.73;;;;;;;;;;6183785;23;20107;-76
2023/03/02 14:17:54;;;;;;;16.83;12.75;;;;;;;;;;6182643;23;20458;-76
2023/03/02 14:20:21;;;;;;;19.65;12.40;;;;;;;;;;6183005;23;20051;-79
2023/03/02 14:22:49;;;;;;;18.75;13.00;;;;;;;;;;6183985;23;20454;-77
2023/03/02 14:25:23;;;;;;;18.38;12.05;;;;;;;;;;6187108;23;20036;-84
2023/03/02 14:27:51;;;;;;;17.05;12.32;;;;;;;;;;6161608;23;20024;-78
2023/03/02 14:30:19;;;;;;;20.05;13.57;;;;;;;;;;6157450;23;20036;-74
2023/03/02 14:32:46;;;;;;;20.98;13.68;;;;;;;;;;6183258;23;20116;-75
2023/03/02 14:35:14;;;;;;;21.73;13.45;;;;;;;;;;6158400;23;20032;-75
2023/03/02 14:37:47;;;;;;;20.83;14.02;;;;;;;;;;6207820;23;20031;-75
2023/03/02 14:40:20;;;;;;;26.77;16.42;;;;;;;;;;6207395;23;20024;-74
2023/03/02 14:42:47;;;;;;;;;;;;;;;;;;6183051;23;20060;-75
2023/03/02 14:45:15;;;;;;;19.65;13.65;;;;;;;;;;6182629;23;19920;-76
2023/03/02 14:47:42;;;;;;;22.67;13.43;;;;;;;;;;6207680;23;20090;-77
2023/03/02 14:50:10;;;;;;;20.30;13.77;;;;;;;;;;6207420;23;20028;-76
2023/03/02 14:52:44;;;;;;;19.65;13.80;;;;;;;;;;6158390;23;20035;-77
2023/03/02 14:55:24;;;;;;;20.98;13.15;;;;;;;;;;6183966;23;20032;-75
2023/03/02 14:58:15;;;;;;;21.92;14.50;;;;;;;;;;6186997;23;20035;-76
2023/03/02 15:00:43;;;;;;;23.23;14.88;;;;;;;;;;6185687;23;20020;-75
2023/03/02 15:03:19;;;;;;;20.98;13.98;;;;;;;;;;6207878;23;20099;-75
2023/03/02 15:05:46;;;;;;;21.33;13.77;;;;;;;;;;6183726;23;20525;-76
2023/03/02 15:08:26;;;;;;;21.98;13.55;;;;;;;;;;6207602;23;20473;-76
2023/03/02 15:10:53;;;;;;;23.08;14.27;;;;;;;;;;6208284;23;20030;-75
2023/03/02 15:13:20;;;;;;;23.10;14.15;;;;;;;;;;6208008;23;20032;-75
2023/03/02 15:15:47;;;;;;;19.30;13.52;;;;;;;;;;6208991;23;20051;-75
2023/03/02 15:18:16;;;;;;;24.00;13.25;;;;;;;;;;6207242;23;20064;-75
2023/03/02 15:20:42;;;;;;;24.25;13.73;;;;;;;;;;6182965;23;20043;-75
2023/03/02 15:23:09;;;;;;;20.48;14.13;;;;;;;;;;6207165;23;20028;-75
2023/03/02 15:25:36;;;;;;;23.85;13.40;;;;;;;;;;6209424;23;20115;-76
2023/03/02 15:28:03;;;;;;;24.40;13.82;;;;;;;;;;6157692;23;20024;-75